Terminal Aerodrome Forecast
Issued by NWS Green Bay, WI

Home | Current Version | Previous Version | Graphics & Text | Print | Product List | Glossary On
Versions: 1 2 3 4 5 6 7 8 9 10 11 12 13 14 15 16 17 18 19 20 21 22 23 24 25 26 27 28 29
243
FTUS43 KGRB 291731
TAFGRB
TAF
KGRB 291731Z 2918/3018 06008KT P6SM SCT040 SCT060
     FM300000 06005KT P6SM FEW060
     FM300900 04008KT P6SM SCT040
     FM301500 05010G16KT P6SM SCT035=

USA.gov is the U.S. government's official web portal to all federal, state and local government web resources and services.